createdAt,value
2023-02-02T00:01:01.935Z,6.23
2023-02-02T00:03:28.568Z,6.21
2023-02-02T00:05:55.306Z,6.22
2023-02-02T00:08:22.093Z,6.23
2023-02-02T00:10:50.461Z,6.21
2023-02-02T00:13:17.437Z,6.21
2023-02-02T00:15:44.572Z,6.22
2023-02-02T00:18:11.191Z,6.21
2023-02-02T00:20:38.246Z,6.20
2023-02-02T00:23:05.323Z,6.24
2023-02-02T00:25:32.468Z,6.24
2023-02-02T00:27:59.089Z,6.23
2023-02-02T00:30:25.715Z,6.24
2023-02-02T00:32:53.227Z,6.21
2023-02-02T00:35:20.664Z,6.21
2023-02-02T00:37:47.304Z,6.20
2023-02-02T00:40:14.065Z,6.22
2023-02-02T00:42:40.820Z,6.18
2023-02-02T00:45:17.084Z,6.17
2023-02-02T00:47:47.355Z,6.13
2023-02-02T00:50:16.682Z,6.10
2023-02-02T00:52:43.599Z,6.09
2023-02-02T00:55:11.429Z,6.07
2023-02-02T00:57:38.352Z,6.05
2023-02-02T01:00:06.984Z,6.06
2023-02-02T01:02:34.941Z,6.07
2023-02-02T01:05:02.545Z,6.07
2023-02-02T01:07:29.238Z,6.09
2023-02-02T01:09:57.065Z,6.07
2023-02-02T01:12:24.391Z,6.11
2023-02-02T01:14:51.025Z,6.12
2023-02-02T01:17:17.685Z,6.10
2023-02-02T01:19:44.313Z,6.11
2023-02-02T01:22:11.873Z,6.10
2023-02-02T01:24:38.952Z,6.08
2023-02-02T01:27:05.959Z,6.07
2023-02-02T01:29:32.673Z,6.08
2023-02-02T01:31:59.347Z,6.06
2023-02-02T01:34:25.885Z,6.05
2023-02-02T01:36:52.482Z,6.04
2023-02-02T01:39:19.791Z,6.03
2023-02-02T01:41:46.419Z,6.01
2023-02-02T01:44:50.951Z,6.04
2023-02-02T01:47:19.372Z,6.05
2023-02-02T01:49:45.978Z,6.06
2023-02-02T01:52:14.783Z,6.03
2023-02-02T01:54:55.032Z,5.98
2023-02-02T01:57:28.083Z,5.98
2023-02-02T01:59:56.032Z,6.02
2023-02-02T02:02:25.230Z,6.03
2023-02-02T02:04:51.946Z,6.01
2023-02-02T02:07:18.792Z,6.02
2023-02-02T02:09:45.435Z,6.01
2023-02-02T02:12:15.335Z,6.03
2023-02-02T02:15:04.310Z,6.02
2023-02-02T02:17:48.117Z,6.01
2023-02-02T02:21:10.718Z,6.00
2023-02-02T02:24:33.868Z,5.99
2023-02-02T02:27:22.969Z,5.94
2023-02-02T02:30:17.828Z,5.92
2023-02-02T02:33:02.737Z,5.92
2023-02-02T02:35:44.379Z,5.89
2023-02-02T02:38:10.933Z,5.90
2023-02-02T02:40:47.395Z,5.88
2023-02-02T02:43:37.666Z,5.88
2023-02-02T02:46:05.235Z,5.87
2023-02-02T02:48:32.043Z,5.87
2023-02-02T02:51:09.508Z,5.88
2023-02-02T02:53:37.030Z,5.87
2023-02-02T02:56:20.345Z,5.85
2023-02-02T02:58:52.037Z,5.86
2023-02-02T03:01:19.093Z,5.86
2023-02-02T03:03:52.749Z,5.85
2023-02-02T03:06:25.342Z,5.89
2023-02-02T03:09:25.588Z,5.87
2023-02-02T03:11:52.239Z,5.85
2023-02-02T03:14:18.892Z,5.91
2023-02-02T03:16:45.470Z,5.88
2023-02-02T03:19:12.258Z,5.86
2023-02-02T03:21:38.859Z,5.86
2023-02-02T03:24:05.699Z,5.88
2023-02-02T03:26:32.287Z,5.84
2023-02-02T03:28:58.875Z,5.88
2023-02-02T03:31:27.223Z,5.91
2023-02-02T03:33:54.288Z,5.85
2023-02-02T03:36:21.492Z,5.88
2023-02-02T03:38:48.187Z,5.86
2023-02-02T03:41:15.194Z,5.87
2023-02-02T03:43:41.824Z,5.86
2023-02-02T03:46:08.484Z,5.85
2023-02-02T03:48:37.457Z,5.85
2023-02-02T03:51:12.798Z,5.85
2023-02-02T03:53:40.696Z,5.85
2023-02-02T03:56:07.542Z,5.86
2023-02-02T03:58:34.145Z,5.83
2023-02-02T04:01:05.745Z,5.85
2023-02-02T04:03:32.929Z,5.86
2023-02-02T04:06:00.035Z,5.87
2023-02-02T04:08:26.783Z,5.88
2023-02-02T04:10:53.431Z,5.88
2023-02-02T04:13:20.200Z,5.88
2023-02-02T04:15:46.872Z,5.88
2023-02-02T04:18:13.477Z,5.93
2023-02-02T04:20:40.100Z,5.89
2023-02-02T04:23:06.724Z,5.94
2023-02-02T04:25:33.285Z,5.95
2023-02-02T04:28:00.480Z,5.99
2023-02-02T04:30:27.074Z,6.00
2023-02-02T04:32:54.752Z,6.00
2023-02-02T04:35:21.426Z,6.01
2023-02-02T04:37:48.019Z,6.00
2023-02-02T04:40:14.864Z,6.01
2023-02-02T04:42:41.411Z,6.00
2023-02-02T04:45:08.294Z,6.01
2023-02-02T04:47:34.912Z,5.99
2023-02-02T04:50:01.597Z,6.00
2023-02-02T04:52:29.324Z,6.03
2023-02-02T04:54:55.980Z,6.01
2023-02-02T04:57:22.635Z,6.01
2023-02-02T04:59:49.228Z,6.01
2023-02-02T05:02:15.933Z,6.04
2023-02-02T05:04:42.726Z,6.05
2023-02-02T05:07:09.325Z,6.03
2023-02-02T05:09:35.882Z,5.98
2023-02-02T05:12:02.609Z,5.96
2023-02-02T05:14:29.573Z,5.97
2023-02-02T05:16:56.334Z,5.95
2023-02-02T05:19:23.048Z,5.93
2023-02-02T05:21:51.204Z,5.92
2023-02-02T05:24:18.081Z,5.92
2023-02-02T05:26:44.663Z,5.93
2023-02-02T05:29:14.726Z,5.95
2023-02-02T05:31:47.463Z,5.95
2023-02-02T05:34:14.162Z,5.97
2023-02-02T05:36:41.055Z,5.98
2023-02-02T05:39:07.739Z,5.98
2023-02-02T05:41:34.381Z,6.05
2023-02-02T05:44:01.285Z,6.03
2023-02-02T05:46:40.314Z,6.06
2023-02-02T05:49:07.380Z,6.02
2023-02-02T05:51:45.870Z,6.02
2023-02-02T05:54:13.145Z,6.02
2023-02-02T05:56:39.749Z,6.00
2023-02-02T05:59:07.489Z,6.00
2023-02-02T06:01:34.457Z,6.01
2023-02-02T06:04:01.114Z,6.04
2023-02-02T06:06:27.739Z,6.04
2023-02-02T06:08:54.546Z,6.05
2023-02-02T06:11:21.208Z,6.07
2023-02-02T06:13:47.824Z,6.10
2023-02-02T06:16:14.454Z,6.10
2023-02-02T06:18:41.663Z,6.09
2023-02-02T06:21:08.641Z,6.08
2023-02-02T06:23:35.452Z,6.07
2023-02-02T06:26:03.456Z,6.03
2023-02-02T06:28:34.341Z,6.05
2023-02-02T06:31:09.533Z,6.02
2023-02-02T06:33:37.510Z,5.98
2023-02-02T06:36:06.464Z,5.96
2023-02-02T06:38:52.177Z,5.96
2023-02-02T06:41:25.207Z,5.95
2023-02-02T06:43:52.989Z,5.95
2023-02-02T06:46:21.547Z,5.93
2023-02-02T06:48:48.503Z,5.95
2023-02-02T06:51:15.153Z,5.92
2023-02-02T06:54:00.896Z,5.94
2023-02-02T06:56:31.467Z,5.94
2023-02-02T06:58:58.036Z,5.95
2023-02-02T07:01:24.795Z,5.98
2023-02-02T07:03:51.998Z,5.96
2023-02-02T07:06:27.288Z,5.98
2023-02-02T07:09:01.876Z,5.96
2023-02-02T07:11:32.575Z,5.97
2023-02-02T07:14:05.640Z,6.00
2023-02-02T07:16:32.304Z,5.98
2023-02-02T07:18:58.981Z,5.99
2023-02-02T07:21:28.279Z,5.99
2023-02-02T07:23:55.007Z,5.99
2023-02-02T07:26:21.673Z,5.95
2023-02-02T07:28:51.922Z,5.94
2023-02-02T07:31:24.446Z,5.96
2023-02-02T07:33:51.432Z,5.97
2023-02-02T07:36:20.008Z,5.95
2023-02-02T07:38:48.238Z,5.96
2023-02-02T07:41:16.142Z,5.97
2023-02-02T07:43:43.507Z,5.96
2023-02-02T07:46:12.775Z,5.95
2023-02-02T07:48:40.623Z,5.96
2023-02-02T07:51:09.922Z,5.97
2023-02-02T07:53:36.675Z,5.97
2023-02-02T07:56:18.123Z,5.97
2023-02-02T07:58:45.029Z,5.98
2023-02-02T08:01:13.317Z,5.99
2023-02-02T08:03:40.580Z,5.98
2023-02-02T08:06:18.721Z,5.98
2023-02-02T08:08:45.886Z,5.98
2023-02-02T08:11:13.834Z,5.94
2023-02-02T08:13:41.357Z,5.97
2023-02-02T08:16:08.898Z,5.95
2023-02-02T08:18:36.372Z,6.00
2023-02-02T08:21:04.781Z,5.99
2023-02-02T08:23:31.880Z,5.99
2023-02-02T08:26:10.788Z,5.98
2023-02-02T08:28:37.959Z,6.01
2023-02-02T08:31:06.477Z,6.02
2023-02-02T08:33:33.229Z,6.03
2023-02-02T08:36:00.052Z,6.03
2023-02-02T08:38:26.710Z,6.02
2023-02-02T08:40:53.446Z,6.04
2023-02-02T08:43:20.254Z,6.04
2023-02-02T08:46:03.094Z,6.03
2023-02-02T08:48:31.541Z,6.01
2023-02-02T08:50:59.127Z,6.02
2023-02-02T08:53:26.811Z,6.05
2023-02-02T08:56:01.077Z,6.04
2023-02-02T08:58:28.485Z,6.07
2023-02-02T09:00:55.357Z,6.09
2023-02-02T09:03:22.020Z,6.10
2023-02-02T09:05:48.673Z,6.10
2023-02-02T09:08:15.315Z,6.10
2023-02-02T09:10:41.984Z,6.06
2023-02-02T09:13:08.710Z,6.07
2023-02-02T09:15:36.028Z,6.05
2023-02-02T09:18:02.766Z,6.04
2023-02-02T09:20:29.375Z,6.04
2023-02-02T09:22:57.094Z,6.05
2023-02-02T09:25:26.173Z,6.02
2023-02-02T09:27:53.286Z,6.04
2023-02-02T09:30:20.296Z,6.05
2023-02-02T09:32:49.337Z,6.07
2023-02-02T09:35:16.470Z,6.09
2023-02-02T09:37:45.321Z,6.09
2023-02-02T09:40:18.837Z,6.03
2023-02-02T09:43:13.918Z,6.05
2023-02-02T09:46:16.171Z,6.06
2023-02-02T09:48:54.980Z,6.06
2023-02-02T09:51:24.951Z,6.07
2023-02-02T09:54:01.653Z,6.10
2023-02-02T09:56:51.313Z,6.12
2023-02-02T09:59:24.717Z,6.12
2023-02-02T10:01:55.373Z,6.15
2023-02-02T10:04:27.825Z,6.15
2023-02-02T10:06:58.054Z,6.18
2023-02-02T10:09:30.957Z,6.24
2023-02-02T10:12:19.926Z,6.21
2023-02-02T10:14:52.821Z,6.22
2023-02-02T10:17:52.935Z,6.24
2023-02-02T10:20:48.141Z,6.28
2023-02-02T10:23:34.578Z,6.27
2023-02-02T10:26:16.828Z,6.28
2023-02-02T10:29:06.216Z,6.36
2023-02-02T10:31:43.394Z,6.36
2023-02-02T10:34:23.931Z,6.40
2023-02-02T10:36:56.373Z,6.48
2023-02-02T10:39:42.075Z,6.54
2023-02-02T10:42:37.266Z,6.53
2023-02-02T10:45:20.672Z,6.53
2023-02-02T10:47:50.014Z,6.60
2023-02-02T10:50:23.461Z,6.62
2023-02-02T10:52:56.815Z,6.62
2023-02-02T10:55:43.402Z,6.63
2023-02-02T10:58:15.220Z,6.63
2023-02-02T11:01:14.304Z,6.58
2023-02-02T11:03:44.764Z,6.60
2023-02-02T11:06:40.128Z,6.61
2023-02-02T11:09:20.089Z,6.59
2023-02-02T11:11:58.194Z,6.65
2023-02-02T11:14:45.428Z,6.61
2023-02-02T11:17:24.894Z,6.65
2023-02-02T11:20:05.998Z,6.68
2023-02-02T11:22:39.132Z,6.68
2023-02-02T11:25:20.136Z,6.69
2023-02-02T11:27:59.363Z,6.69
2023-02-02T11:30:37.949Z,6.71
2023-02-02T11:33:22.816Z,6.72
2023-02-02T11:35:55.805Z,6.69
2023-02-02T11:38:22.720Z,6.71
2023-02-02T11:41:02.220Z,6.75
2023-02-02T11:43:31.807Z,6.80
2023-02-02T11:46:02.849Z,6.81
2023-02-02T11:48:36.122Z,6.82
2023-02-02T11:51:04.439Z,6.84
2023-02-02T11:53:35.133Z,6.87
2023-02-02T11:56:17.592Z,6.89
2023-02-02T11:58:52.275Z,6.99
2023-02-02T12:01:30.818Z,7.04
2023-02-02T12:04:03.417Z,7.06
2023-02-02T12:06:33.006Z,7.11
2023-02-02T12:09:02.239Z,7.19
2023-02-02T12:11:35.013Z,7.23
2023-02-02T12:14:17.026Z,7.19
2023-02-02T12:16:56.877Z,7.20
2023-02-02T12:19:43.335Z,7.18
2023-02-02T12:22:20.006Z,7.19
2023-02-02T12:24:57.096Z,7.23
2023-02-02T12:28:02.707Z,7.23
2023-02-02T12:30:41.249Z,7.26
2023-02-02T12:33:29.850Z,7.30
2023-02-02T12:36:10.731Z,7.34
2023-02-02T12:38:57.707Z,7.39
2023-02-02T12:41:44.322Z,7.49
2023-02-02T12:44:23.090Z,7.45
2023-02-02T12:47:09.106Z,7.41
2023-02-02T12:49:39.029Z,7.40
2023-02-02T12:52:06.069Z,7.43
2023-02-02T12:54:46.167Z,7.39
2023-02-02T12:57:38.947Z,7.44
2023-02-02T13:00:14.183Z,7.44
2023-02-02T13:03:05.620Z,7.45
2023-02-02T13:05:41.872Z,7.42
2023-02-02T13:08:12.183Z,7.42
2023-02-02T13:10:42.052Z,7.38
2023-02-02T13:13:16.419Z,7.39
2023-02-02T13:15:46.898Z,7.39
2023-02-02T13:18:23.676Z,7.41
2023-02-02T13:20:56.645Z,7.36
2023-02-02T13:23:29.097Z,7.40
2023-02-02T13:26:07.596Z,7.45
2023-02-02T13:28:58.488Z,7.45
2023-02-02T13:31:33.933Z,7.43
2023-02-02T13:34:18.174Z,7.40
2023-02-02T13:36:49.530Z,7.35
2023-02-02T13:39:37.030Z,7.34
2023-02-02T13:42:16.801Z,7.34
2023-02-02T13:44:50.066Z,7.37
2023-02-02T13:47:21.188Z,7.37
2023-02-02T13:49:52.246Z,7.37
2023-02-02T13:52:43.052Z,7.33
2023-02-02T13:56:06.591Z,7.29
2023-02-02T13:58:51.364Z,7.23
2023-02-02T14:01:19.192Z,7.20
2023-02-02T14:03:56.844Z,7.11
2023-02-02T14:06:25.901Z,7.06
2023-02-02T14:08:56.288Z,7.03
2023-02-02T14:11:23.240Z,7.05
2023-02-02T14:14:11.434Z,7.03
2023-02-02T14:16:38.028Z,7.10
2023-02-02T14:19:41.829Z,7.14
2023-02-02T14:22:08.802Z,7.20
2023-02-02T14:24:35.631Z,7.16
2023-02-02T14:27:08.320Z,7.15
2023-02-02T14:29:46.740Z,7.20
2023-02-02T14:32:29.126Z,7.23
2023-02-02T14:35:26.078Z,7.25
2023-02-02T14:38:08.134Z,7.28
2023-02-02T14:40:56.856Z,7.29
2023-02-02T14:43:46.208Z,7.29
2023-02-02T14:46:13.148Z,7.31
2023-02-02T14:48:42.225Z,7.31
2023-02-02T14:51:22.348Z,7.32
2023-02-02T14:53:55.354Z,7.36
2023-02-02T14:56:38.597Z,7.37
2023-02-02T14:59:07.399Z,7.40
2023-02-02T15:01:35.938Z,7.47
2023-02-02T15:04:17.926Z,7.42
2023-02-02T15:06:44.571Z,7.40
2023-02-02T15:09:20.353Z,7.37
2023-02-02T15:12:01.104Z,7.38
2023-02-02T15:14:39.107Z,7.36
2023-02-02T15:17:12.521Z,7.36
2023-02-02T15:19:41.991Z,7.36
2023-02-02T15:22:24.300Z,7.38
2023-02-02T15:24:51.909Z,7.42
2023-02-02T15:27:19.636Z,7.41
2023-02-02T15:29:49.697Z,7.41
2023-02-02T15:32:20.449Z,7.41
2023-02-02T15:34:50.287Z,7.35
2023-02-02T15:37:22.977Z,7.34
2023-02-02T15:39:52.866Z,7.31
2023-02-02T15:42:52.571Z,7.33
2023-02-02T15:45:29.144Z,7.33
2023-02-02T15:48:00.183Z,7.31
2023-02-02T15:50:27.617Z,7.30
2023-02-02T15:52:55.121Z,7.30
2023-02-02T15:55:29.765Z,7.30
2023-02-02T15:57:56.837Z,7.27
2023-02-02T16:00:30.788Z,7.24
2023-02-02T16:03:10.024Z,7.24
2023-02-02T16:05:36.609Z,7.11
2023-02-02T16:08:07.232Z,7.04
2023-02-02T16:10:34.612Z,6.98
2023-02-02T16:13:01.870Z,6.95
2023-02-02T16:15:29.827Z,6.88
2023-02-02T16:18:05.501Z,6.85
2023-02-02T16:20:36.274Z,6.73
2023-02-02T16:23:06.152Z,6.72
2023-02-02T16:25:35.061Z,6.72
2023-02-02T16:28:03.207Z,6.71
2023-02-02T16:30:30.803Z,6.62
2023-02-02T16:32:57.717Z,6.64
2023-02-02T16:35:36.577Z,6.58
2023-02-02T16:38:24.245Z,6.56
2023-02-02T16:41:11.464Z,6.58
2023-02-02T16:43:40.244Z,6.54
2023-02-02T16:46:12.778Z,6.51
2023-02-02T16:48:55.889Z,6.53
2023-02-02T16:51:27.621Z,6.52
2023-02-02T16:54:01.445Z,6.47
2023-02-02T16:56:41.179Z,6.46
2023-02-02T16:59:26.400Z,6.43
2023-02-02T17:01:57.333Z,6.43
2023-02-02T17:04:28.342Z,6.43
2023-02-02T17:06:57.635Z,6.46
2023-02-02T17:09:34.740Z,6.46
2023-02-02T17:12:33.599Z,6.49
2023-02-02T17:15:06.054Z,6.46
2023-02-02T17:17:33.044Z,6.44
2023-02-02T17:19:59.805Z,6.44
2023-02-02T17:22:27.784Z,6.45
2023-02-02T17:24:54.482Z,6.41
2023-02-02T17:27:33.978Z,6.41
2023-02-02T17:30:02.788Z,6.43
2023-02-02T17:32:29.531Z,6.41
2023-02-02T17:34:56.404Z,6.39
2023-02-02T17:37:22.983Z,6.42
2023-02-02T17:39:50.845Z,6.42
2023-02-02T17:42:24.582Z,6.35
2023-02-02T17:44:51.580Z,6.37
2023-02-02T17:47:18.332Z,6.37
2023-02-02T17:49:45.211Z,6.37
2023-02-02T17:52:12.796Z,6.37
2023-02-02T17:54:39.403Z,6.40
2023-02-02T17:57:06.176Z,6.39
2023-02-02T17:59:32.806Z,6.40
2023-02-02T18:01:59.903Z,6.40
2023-02-02T18:04:26.910Z,6.43
2023-02-02T18:06:53.642Z,6.49
2023-02-02T18:09:20.247Z,6.51
2023-02-02T18:11:50.014Z,6.48
2023-02-02T18:14:16.774Z,6.48
2023-02-02T18:16:43.528Z,6.52
2023-02-02T18:19:10.482Z,6.52
2023-02-02T18:21:37.578Z,6.51
2023-02-02T18:24:05.237Z,6.53
2023-02-02T18:26:32.742Z,6.54
2023-02-02T18:28:59.574Z,6.52
2023-02-02T18:31:27.045Z,6.51
2023-02-02T18:33:54.443Z,6.51
2023-02-02T18:36:23.711Z,6.52
2023-02-02T18:38:51.274Z,6.52
2023-02-02T18:41:18.728Z,6.51
2023-02-02T18:43:45.580Z,6.52
2023-02-02T18:46:45.837Z,6.52
2023-02-02T18:49:12.514Z,6.52
2023-02-02T18:51:39.379Z,6.54
2023-02-02T18:54:06.388Z,6.53
2023-02-02T18:56:33.173Z,6.53
2023-02-02T18:58:59.896Z,6.55
2023-02-02T19:01:26.911Z,6.57
2023-02-02T19:03:57.036Z,6.61
2023-02-02T19:06:42.903Z,6.60
2023-02-02T19:09:09.570Z,6.64
2023-02-02T19:11:39.978Z,6.60
2023-02-02T19:14:13.723Z,6.61
2023-02-02T19:16:40.724Z,6.60
2023-02-02T19:19:23.232Z,6.61
2023-02-02T19:21:55.856Z,6.62
2023-02-02T19:24:22.612Z,6.59
2023-02-02T19:26:50.245Z,6.54
2023-02-02T19:29:21.144Z,6.54
2023-02-02T19:32:05.055Z,6.61
2023-02-02T19:34:33.852Z,6.59
2023-02-02T19:37:18.101Z,6.58
2023-02-02T19:39:47.361Z,6.56
2023-02-02T19:42:14.314Z,6.53
2023-02-02T19:44:41.985Z,6.55
2023-02-02T19:47:26.221Z,6.53
2023-02-02T19:49:53.188Z,6.55
2023-02-02T19:52:24.062Z,6.60
2023-02-02T19:54:50.904Z,6.62
2023-02-02T19:57:33.308Z,6.62
2023-02-02T20:00:02.438Z,6.60
2023-02-02T20:02:48.019Z,6.63
2023-02-02T20:05:14.581Z,6.63
2023-02-02T20:07:41.398Z,6.62
2023-02-02T20:10:19.129Z,6.62
2023-02-02T20:12:45.842Z,6.63
2023-02-02T20:15:47.034Z,6.65
2023-02-02T20:18:20.156Z,6.65
2023-02-02T20:20:50.479Z,6.67
2023-02-02T20:23:35.476Z,6.64
2023-02-02T20:26:15.984Z,6.68
2023-02-02T20:28:46.091Z,6.68
2023-02-02T20:31:19.263Z,6.79
2023-02-02T20:33:50.421Z,6.79
2023-02-02T20:36:39.417Z,6.77
2023-02-02T20:39:15.240Z,6.77
2023-02-02T20:41:43.893Z,6.77
2023-02-02T20:44:11.697Z,6.78
2023-02-02T20:46:38.364Z,6.77
2023-02-02T20:49:05.684Z,6.79
2023-02-02T20:51:32.476Z,6.80
2023-02-02T20:53:59.180Z,6.83
2023-02-02T20:56:28.252Z,6.83
2023-02-02T20:58:55.017Z,6.84
2023-02-02T21:01:23.519Z,6.81
2023-02-02T21:04:09.718Z,6.77
2023-02-02T21:07:01.885Z,6.86
2023-02-02T21:09:40.195Z,6.85
2023-02-02T21:12:36.273Z,6.84
2023-02-02T21:15:21.920Z,6.87
2023-02-02T21:18:39.717Z,6.89
2023-02-02T21:21:37.888Z,6.97
2023-02-02T21:24:08.781Z,6.96
2023-02-02T21:26:38.963Z,6.95
2023-02-02T21:29:14.627Z,6.91
2023-02-02T21:31:42.269Z,6.90
2023-02-02T21:34:09.186Z,6.96
2023-02-02T21:36:44.593Z,6.95
2023-02-02T21:39:12.999Z,6.94
2023-02-02T21:41:39.655Z,6.95
2023-02-02T21:44:12.830Z,6.93
2023-02-02T21:46:40.092Z,6.99
2023-02-02T21:49:19.216Z,6.93
2023-02-02T21:51:45.999Z,7.00
2023-02-02T21:54:28.715Z,7.01
2023-02-02T21:56:55.969Z,7.03
2023-02-02T21:59:24.686Z,7.05
2023-02-02T22:01:52.843Z,7.07
2023-02-02T22:04:25.103Z,7.04
2023-02-02T22:06:53.889Z,7.04
2023-02-02T22:09:24.769Z,7.05
2023-02-02T22:12:02.228Z,7.03
2023-02-02T22:14:37.290Z,7.02
2023-02-02T22:17:16.812Z,7.05
2023-02-02T22:19:43.960Z,7.05
2023-02-02T22:22:20.191Z,7.07
2023-02-02T22:24:53.696Z,7.09
2023-02-02T22:27:23.601Z,7.07
2023-02-02T22:29:55.227Z,7.11
2023-02-02T22:32:21.865Z,7.10
2023-02-02T22:34:48.478Z,7.09
2023-02-02T22:37:15.172Z,7.10
2023-02-02T22:39:42.852Z,7.11
2023-02-02T22:42:10.565Z,7.08
2023-02-02T22:44:37.311Z,7.09
2023-02-02T22:47:04.098Z,7.16
2023-02-02T22:49:30.704Z,7.15
2023-02-02T22:51:57.328Z,7.10
2023-02-02T22:54:26.698Z,7.12
2023-02-02T22:56:53.342Z,7.14
2023-02-02T22:59:20.159Z,7.15
2023-02-02T23:01:46.807Z,7.18
2023-02-02T23:04:13.680Z,7.18
2023-02-02T23:06:40.385Z,7.17
2023-02-02T23:09:07.019Z,7.18
2023-02-02T23:11:33.703Z,7.24
2023-02-02T23:14:00.303Z,7.26
2023-02-02T23:16:26.971Z,7.23
2023-02-02T23:18:53.824Z,7.24
2023-02-02T23:21:20.396Z,7.23
2023-02-02T23:23:47.168Z,7.22
2023-02-02T23:26:13.870Z,7.28
2023-02-02T23:28:40.580Z,7.29
2023-02-02T23:31:07.383Z,7.29
2023-02-02T23:33:34.238Z,7.26
2023-02-02T23:36:00.865Z,7.28
2023-02-02T23:38:27.494Z,7.28
2023-02-02T23:40:54.113Z,7.32
2023-02-02T23:43:20.792Z,7.28
2023-02-02T23:45:47.443Z,7.35
2023-02-02T23:48:14.136Z,7.34
2023-02-02T23:50:41.435Z,7.38
2023-02-02T23:53:09.149Z,7.35
2023-02-02T23:55:36.183Z,7.35
2023-02-02T23:58:02.900Z,7.33
